EZY575B EGPH-EGAC
Flight info
| Callsign | EZY575B |
|---|---|
| Flight time | 0h 34m |
| Altitude | 20000 |
| Route | GOSAM P600 BLACA DCT MAGEE |
| Aircraft | A320/M-SDE3FGHIRWY/LB1 |
Departure
| Time | 2026-05-06 06:09 |
|---|---|
| Airport | Edinburgh Airport (EGPH) |
Arrival
| Time | 2026-05-06 06:43 |
|---|---|
| Airport | George Best Belfast City Airport (EGAC) |
| Time | Latitude | Longitude | Altitude | Speed | Heading |
|---|---|---|---|---|---|
| 2026-05-06 05:40 | 55.94834 | -3.35806 | 117 ft | 0 kts | 208° |
| 2026-05-06 06:00 | 55.94848 | -3.35792 | 113 ft | 4 kts | 208° |
| 2026-05-06 06:00 | 55.94868 | -3.35774 | 115 ft | 4 kts | 213° |
| 2026-05-06 06:00 | 55.94884 | -3.35740 | 115 ft | 4 kts | 261° |
| 2026-05-06 06:01 | 55.94882 | -3.35695 | 114 ft | 3 kts | 296° |
| 2026-05-06 06:01 | 55.94881 | -3.35690 | 114 ft | 0 kts | 298° |
| 2026-05-06 06:03 | 55.94892 | -3.35727 | 114 ft | 6 kts | 299° |
| 2026-05-06 06:04 | 55.94917 | -3.35806 | 115 ft | 11 kts | 302° |
| 2026-05-06 06:04 | 55.94987 | -3.35853 | 115 ft | 12 kts | 20° |
| 2026-05-06 06:04 | 55.95063 | -3.35889 | 115 ft | 13 kts | 302° |
| 2026-05-06 06:04 | 55.95104 | -3.36054 | 114 ft | 17 kts | 289° |
| 2026-05-06 06:05 | 55.95132 | -3.36261 | 116 ft | 17 kts | 263° |
| 2026-05-06 06:05 | 55.95074 | -3.36458 | 113 ft | 19 kts | 239° |
| 2026-05-06 06:05 | 55.95004 | -3.36664 | 115 ft | 20 kts | 238° |
| 2026-05-06 06:05 | 55.94928 | -3.36890 | 114 ft | 23 kts | 239° |
| 2026-05-06 06:06 | 55.94843 | -3.37142 | 114 ft | 24 kts | 239° |
| 2026-05-06 06:06 | 55.94758 | -3.37391 | 113 ft | 24 kts | 239° |
| 2026-05-06 06:06 | 55.94673 | -3.37643 | 115 ft | 24 kts | 238° |
| 2026-05-06 06:06 | 55.94583 | -3.37904 | 115 ft | 25 kts | 240° |
| 2026-05-06 06:07 | 55.94494 | -3.38169 | 115 ft | 19 kts | 238° |
| 2026-05-06 06:07 | 55.94425 | -3.38373 | 115 ft | 20 kts | 238° |
| 2026-05-06 06:07 | 55.94352 | -3.38591 | 114 ft | 17 kts | 239° |
| 2026-05-06 06:07 | 55.94300 | -3.38745 | 112 ft | 15 kts | 239° |
| 2026-05-06 06:08 | 55.94314 | -3.38896 | 114 ft | 9 kts | 326° |
| 2026-05-06 06:08 | 55.94363 | -3.38948 | 113 ft | 10 kts | 329° |
| 2026-05-06 06:08 | 55.94424 | -3.38940 | 113 ft | 9 kts | 45° |
| 2026-05-06 06:08 | 55.94433 | -3.38918 | 114 ft | 4 kts | 56° |
| 2026-05-06 06:09 | 55.94546 | -3.38585 | 111 ft | 70 kts | 59° |
| 2026-05-06 06:09 | 55.94921 | -3.37484 | 111 ft | 134 kts | 59° |
| 2026-05-06 06:09 | 55.95477 | -3.35842 | 413 ft | 156 kts | 59° |
| 2026-05-06 06:09 | 55.96072 | -3.34235 | 1236 ft | 156 kts | 48° |
| 2026-05-06 06:10 | 55.96897 | -3.32852 | 1821 ft | 172 kts | 43° |
| 2026-05-06 06:10 | 55.97844 | -3.31328 | 2220 ft | 194 kts | 44° |
| 2026-05-06 06:10 | 55.98902 | -3.29624 | 2638 ft | 220 kts | 43° |
| 2026-05-06 06:10 | 56.00270 | -3.28101 | 3184 ft | 247 kts | 15° |
| 2026-05-06 06:11 | 56.01998 | -3.28332 | 4039 ft | 260 kts | 338° |
| 2026-05-06 06:11 | 56.03375 | -3.30441 | 5106 ft | 266 kts | 302° |
| 2026-05-06 06:11 | 56.03839 | -3.33638 | 6174 ft | 270 kts | 269° |
| 2026-05-06 06:11 | 56.03510 | -3.36930 | 7241 ft | 270 kts | 255° |
| 2026-05-06 06:12 | 56.02903 | -3.40082 | 8212 ft | 273 kts | 251° |
| 2026-05-06 06:12 | 56.02227 | -3.43277 | 9156 ft | 277 kts | 251° |
| 2026-05-06 06:12 | 56.01565 | -3.46600 | 10086 ft | 281 kts | 252° |
| 2026-05-06 06:12 | 56.00958 | -3.49982 | 10549 ft | 300 kts | 254° |
| 2026-05-06 06:13 | 56.00359 | -3.53684 | 11034 ft | 316 kts | 256° |
| 2026-05-06 06:13 | 55.99786 | -3.57508 | 11834 ft | 320 kts | 256° |
| 2026-05-06 06:13 | 55.99419 | -3.60058 | 12413 ft | 322 kts | 257° |
| 2026-05-06 06:13 | 55.98868 | -3.63959 | 13276 ft | 325 kts | 257° |
| 2026-05-06 06:14 | 55.98315 | -3.67900 | 14111 ft | 327 kts | 257° |
| 2026-05-06 06:14 | 55.97757 | -3.71847 | 14844 ft | 330 kts | 257° |
| 2026-05-06 06:14 | 55.97187 | -3.75849 | 15572 ft | 332 kts | 257° |
| 2026-05-06 06:14 | 55.96611 | -3.79856 | 16294 ft | 335 kts | 256° |
| 2026-05-06 06:15 | 55.96024 | -3.83911 | 17012 ft | 338 kts | 256° |
| 2026-05-06 06:15 | 55.95425 | -3.88005 | 17730 ft | 341 kts | 256° |
| 2026-05-06 06:15 | 55.94824 | -3.92108 | 18434 ft | 344 kts | 256° |
| 2026-05-06 06:15 | 55.94214 | -3.96260 | 19042 ft | 347 kts | 255° |
| 2026-05-06 06:16 | 55.93289 | -4.00255 | 19645 ft | 352 kts | 242° |
| 2026-05-06 06:16 | 55.91837 | -4.03791 | 20011 ft | 357 kts | 229° |
| 2026-05-06 06:16 | 55.89955 | -4.06567 | 20092 ft | 352 kts | 217° |
| 2026-05-06 06:16 | 55.87962 | -4.08961 | 20108 ft | 339 kts | 217° |
| 2026-05-06 06:17 | 55.86016 | -4.11311 | 20108 ft | 335 kts | 217° |
| 2026-05-06 06:17 | 55.84096 | -4.13645 | 20102 ft | 334 kts | 218° |
| 2026-05-06 06:17 | 55.82179 | -4.15985 | 20109 ft | 334 kts | 218° |
| 2026-05-06 06:17 | 55.80262 | -4.18330 | 20109 ft | 334 kts | 218° |
| 2026-05-06 06:18 | 55.78350 | -4.20668 | 20113 ft | 334 kts | 218° |
| 2026-05-06 06:18 | 55.76438 | -4.23027 | 20105 ft | 334 kts | 218° |
| 2026-05-06 06:18 | 55.74539 | -4.25390 | 20104 ft | 334 kts | 218° |
| 2026-05-06 06:18 | 55.72636 | -4.27767 | 20101 ft | 334 kts | 218° |
| 2026-05-06 06:19 | 55.70742 | -4.30131 | 20113 ft | 334 kts | 218° |
| 2026-05-06 06:19 | 55.68842 | -4.32498 | 20109 ft | 334 kts | 218° |
| 2026-05-06 06:19 | 55.66933 | -4.34867 | 20104 ft | 334 kts | 218° |
| 2026-05-06 06:19 | 55.65023 | -4.37228 | 20089 ft | 334 kts | 218° |
| 2026-05-06 06:20 | 55.63113 | -4.39586 | 20089 ft | 334 kts | 218° |
| 2026-05-06 06:20 | 55.61227 | -4.41912 | 20092 ft | 334 kts | 218° |
| 2026-05-06 06:20 | 55.59320 | -4.44262 | 20087 ft | 334 kts | 218° |
| 2026-05-06 06:20 | 55.57402 | -4.46624 | 20080 ft | 334 kts | 218° |
| 2026-05-06 06:21 | 55.55495 | -4.48966 | 20082 ft | 334 kts | 218° |
| 2026-05-06 06:21 | 55.53606 | -4.51285 | 20077 ft | 334 kts | 218° |
| 2026-05-06 06:21 | 55.51698 | -4.53618 | 20075 ft | 334 kts | 218° |
| 2026-05-06 06:21 | 55.49784 | -4.55957 | 20074 ft | 334 kts | 218° |
| 2026-05-06 06:22 | 55.47870 | -4.58293 | 20087 ft | 334 kts | 218° |
| 2026-05-06 06:22 | 55.45957 | -4.60626 | 20087 ft | 334 kts | 218° |
| 2026-05-06 06:22 | 55.44039 | -4.62962 | 20087 ft | 334 kts | 218° |
| 2026-05-06 06:22 | 55.42129 | -4.65289 | 20087 ft | 334 kts | 218° |
| 2026-05-06 06:23 | 55.40208 | -4.67629 | 20086 ft | 334 kts | 218° |
| 2026-05-06 06:23 | 55.38314 | -4.69936 | 20086 ft | 334 kts | 218° |
| 2026-05-06 06:23 | 55.36393 | -4.72267 | 20086 ft | 335 kts | 218° |
| 2026-05-06 06:23 | 55.34480 | -4.74583 | 20088 ft | 335 kts | 218° |
| 2026-05-06 06:24 | 55.32551 | -4.76915 | 20087 ft | 335 kts | 218° |
| 2026-05-06 06:24 | 55.30562 | -4.79077 | 20086 ft | 337 kts | 210° |
| 2026-05-06 06:24 | 55.28462 | -4.80926 | 20086 ft | 338 kts | 210° |
| 2026-05-06 06:24 | 55.26363 | -4.82773 | 20085 ft | 338 kts | 210° |
| 2026-05-06 06:25 | 55.24290 | -4.84596 | 20086 ft | 338 kts | 210° |
| 2026-05-06 06:25 | 55.22186 | -4.86442 | 20082 ft | 338 kts | 210° |
| 2026-05-06 06:25 | 55.17977 | -4.90124 | 20081 ft | 338 kts | 210° |
| 2026-05-06 06:26 | 55.15872 | -4.91966 | 20078 ft | 338 kts | 210° |
| 2026-05-06 06:26 | 55.13766 | -4.93805 | 20080 ft | 338 kts | 210° |
| 2026-05-06 06:26 | 55.11654 | -4.95649 | 20074 ft | 338 kts | 210° |
| 2026-05-06 06:26 | 55.09578 | -4.97458 | 19931 ft | 335 kts | 210° |
| 2026-05-06 06:27 | 55.07489 | -4.99277 | 19489 ft | 334 kts | 210° |
| 2026-05-06 06:27 | 55.05407 | -5.01092 | 19066 ft | 332 kts | 210° |
| 2026-05-06 06:27 | 55.03341 | -5.02893 | 18649 ft | 331 kts | 210° |
| 2026-05-06 06:27 | 55.01282 | -5.04687 | 18219 ft | 330 kts | 210° |
| 2026-05-06 06:28 | 54.99234 | -5.06469 | 17798 ft | 328 kts | 210° |
| 2026-05-06 06:28 | 54.97204 | -5.08232 | 17399 ft | 325 kts | 210° |
| 2026-05-06 06:28 | 54.95185 | -5.09976 | 17003 ft | 322 kts | 210° |
| 2026-05-06 06:28 | 54.93180 | -5.11703 | 16614 ft | 320 kts | 210° |
| 2026-05-06 06:29 | 54.91187 | -5.13433 | 16226 ft | 318 kts | 212° |
| 2026-05-06 06:29 | 54.89429 | -5.15625 | 15849 ft | 312 kts | 226° |
| 2026-05-06 06:29 | 54.88050 | -5.18494 | 15471 ft | 308 kts | 240° |
| 2026-05-06 06:29 | 54.87128 | -5.21820 | 15106 ft | 304 kts | 252° |
| 2026-05-06 06:30 | 54.86435 | -5.25276 | 14743 ft | 302 kts | 252° |
| 2026-05-06 06:30 | 54.85735 | -5.28735 | 14368 ft | 301 kts | 252° |
| 2026-05-06 06:30 | 54.85038 | -5.32154 | 14012 ft | 301 kts | 252° |
| 2026-05-06 06:30 | 54.84339 | -5.35568 | 13622 ft | 300 kts | 252° |
| 2026-05-06 06:31 | 54.83649 | -5.38934 | 13253 ft | 298 kts | 252° |
| 2026-05-06 06:31 | 54.82955 | -5.42314 | 12881 ft | 296 kts | 252° |
| 2026-05-06 06:31 | 54.82266 | -5.45672 | 12519 ft | 294 kts | 252° |
| 2026-05-06 06:31 | 54.81579 | -5.49013 | 12149 ft | 293 kts | 252° |
| 2026-05-06 06:32 | 54.80896 | -5.52343 | 11773 ft | 291 kts | 252° |
| 2026-05-06 06:32 | 54.80225 | -5.55600 | 11408 ft | 290 kts | 252° |
| 2026-05-06 06:32 | 54.79488 | -5.58842 | 11025 ft | 290 kts | 244° |
| 2026-05-06 06:32 | 54.78348 | -5.61731 | 10620 ft | 292 kts | 229° |
| 2026-05-06 06:33 | 54.76826 | -5.64069 | 10184 ft | 294 kts | 220° |
| 2026-05-06 06:33 | 54.75222 | -5.66263 | 9873 ft | 290 kts | 220° |
| 2026-05-06 06:33 | 54.73653 | -5.68408 | 9557 ft | 286 kts | 220° |
| 2026-05-06 06:33 | 54.72086 | -5.70516 | 9184 ft | 284 kts | 216° |
| 2026-05-06 06:34 | 54.70301 | -5.71885 | 8885 ft | 281 kts | 196° |
| 2026-05-06 06:34 | 54.68388 | -5.72499 | 8524 ft | 279 kts | 189° |
| 2026-05-06 06:34 | 54.66469 | -5.72958 | 8161 ft | 277 kts | 188° |
| 2026-05-06 06:34 | 54.64558 | -5.73419 | 7745 ft | 276 kts | 188° |
| 2026-05-06 06:35 | 54.62659 | -5.73897 | 7333 ft | 275 kts | 188° |
| 2026-05-06 06:35 | 54.60781 | -5.74395 | 6929 ft | 274 kts | 188° |
| 2026-05-06 06:35 | 54.58894 | -5.74922 | 6536 ft | 272 kts | 188° |
| 2026-05-06 06:35 | 54.57028 | -5.75465 | 6110 ft | 271 kts | 189° |
| 2026-05-06 06:36 | 54.55179 | -5.76014 | 5683 ft | 269 kts | 189° |
| 2026-05-06 06:36 | 54.53372 | -5.76779 | 5240 ft | 268 kts | 200° |
| 2026-05-06 06:36 | 54.51695 | -5.78094 | 4687 ft | 261 kts | 206° |
| 2026-05-06 06:36 | 54.50112 | -5.79521 | 4128 ft | 253 kts | 207° |
| 2026-05-06 06:37 | 54.48572 | -5.80929 | 3580 ft | 248 kts | 207° |
| 2026-05-06 06:37 | 54.47072 | -5.82298 | 3085 ft | 240 kts | 207° |
| 2026-05-06 06:37 | 54.45645 | -5.83632 | 2804 ft | 226 kts | 212° |
| 2026-05-06 06:37 | 54.44548 | -5.85506 | 2529 ft | 224 kts | 237° |
| 2026-05-06 06:38 | 54.44070 | -5.87979 | 2503 ft | 213 kts | 265° |
| 2026-05-06 06:38 | 54.44215 | -5.90396 | 2598 ft | 202 kts | 282° |
| 2026-05-06 06:38 | 54.44511 | -5.92733 | 2687 ft | 198 kts | 281° |
| 2026-05-06 06:38 | 54.44799 | -5.95033 | 2767 ft | 197 kts | 281° |
| 2026-05-06 06:39 | 54.45165 | -5.97303 | 2804 ft | 196 kts | 294° |
| 2026-05-06 06:39 | 54.45916 | -5.99250 | 2806 ft | 197 kts | 314° |
| 2026-05-06 06:39 | 54.47013 | -6.00652 | 2809 ft | 196 kts | 335° |
| 2026-05-06 06:39 | 54.48322 | -6.01333 | 2707 ft | 197 kts | 355° |
| 2026-05-06 06:40 | 54.49653 | -6.01194 | 2597 ft | 193 kts | 16° |
| 2026-05-06 06:40 | 54.50878 | -6.00282 | 2521 ft | 192 kts | 36° |
| 2026-05-06 06:40 | 54.51957 | -5.99004 | 2329 ft | 181 kts | 37° |
| 2026-05-06 06:40 | 54.52962 | -5.97806 | 2085 ft | 171 kts | 37° |
| 2026-05-06 06:41 | 54.53914 | -5.96674 | 1867 ft | 161 kts | 37° |
| 2026-05-06 06:41 | 54.54812 | -5.95605 | 1646 ft | 150 kts | 37° |
| 2026-05-06 06:41 | 54.55641 | -5.94618 | 1432 ft | 141 kts | 37° |
| 2026-05-06 06:41 | 54.56436 | -5.93669 | 1225 ft | 138 kts | 37° |
| 2026-05-06 06:42 | 54.57218 | -5.92737 | 1029 ft | 136 kts | 37° |
| 2026-05-06 06:42 | 54.57994 | -5.91811 | 826 ft | 135 kts | 37° |
| 2026-05-06 06:42 | 54.58767 | -5.90889 | 641 ft | 135 kts | 37° |
| 2026-05-06 06:42 | 54.59536 | -5.89975 | 469 ft | 134 kts | 36° |
| 2026-05-06 06:43 | 54.60299 | -5.89083 | 335 ft | 134 kts | 38° |
| 2026-05-06 06:43 | 54.61064 | -5.88154 | 100 ft | 134 kts | 38° |
| 2026-05-06 06:43 | 54.61793 | -5.87275 | 21 ft | 117 kts | 38° |
| 2026-05-06 06:43 | 54.62249 | -5.86726 | 20 ft | 49 kts | 33° |
| 2026-05-06 06:44 | 54.62415 | -5.86552 | 22 ft | 16 kts | 9° |
| 2026-05-06 06:44 | 54.62472 | -5.86473 | 19 ft | 11 kts | 130° |
| 2026-05-06 06:44 | 54.62427 | -5.86510 | 21 ft | 6 kts | 219° |
| 2026-05-06 06:44 | 54.62378 | -5.86575 | 22 ft | 10 kts | 217° |
| 2026-05-06 06:45 | 54.62307 | -5.86658 | 20 ft | 20 kts | 213° |
| 2026-05-06 06:45 | 54.62181 | -5.86808 | 18 ft | 23 kts | 214° |
| 2026-05-06 06:45 | 54.62046 | -5.86974 | 17 ft | 24 kts | 216° |
| 2026-05-06 06:45 | 54.61913 | -5.87129 | 18 ft | 18 kts | 215° |
| 2026-05-06 06:46 | 54.61816 | -5.87130 | 17 ft | 17 kts | 128° |
| 2026-05-06 06:46 | 54.61749 | -5.86997 | 21 ft | 13 kts | 166° |
| 2026-05-06 06:46 | 54.61673 | -5.87056 | 21 ft | 11 kts | 214° |
| 2026-05-06 06:46 | 54.61613 | -5.87129 | 21 ft | 11 kts | 216° |
| 2026-05-06 06:47 | 54.61556 | -5.87182 | 21 ft | 7 kts | 184° |
| 2026-05-06 06:47 | 54.61521 | -5.87161 | 21 ft | 2 kts | 158° |
| 2026-05-06 06:47 | 54.61513 | -5.87156 | 21 ft | 0 kts | 157° |
| 2026-05-06 06:47 | 54.61512 | -5.87155 | 23 ft | 3 kts | 157° |
| 2026-05-06 06:48 | 54.61500 | -5.87146 | 23 ft | 0 kts | 155° |
| 2026-05-06 06:48 | 54.61499 | -5.87145 | 23 ft | 0 kts | 155° |